createdAt,value
2018-06-27T00:01:51.720Z,6.30
2018-06-27T00:04:19.900Z,7.00
2018-06-27T00:06:48.132Z,7.10
2018-06-27T00:09:16.341Z,6.10
2018-06-27T00:11:44.560Z,6.77
2018-06-27T00:14:12.797Z,6.30
2018-06-27T00:16:41.069Z,5.60
2018-06-27T00:19:09.395Z,7.00
2018-06-27T00:21:37.641Z,5.90
2018-06-27T00:24:05.888Z,6.33
2018-06-27T00:26:34.092Z,4.67
2018-06-27T00:29:02.344Z,6.60
2018-06-27T00:31:30.581Z,6.60
2018-06-27T00:33:58.948Z,6.43
2018-06-27T00:36:27.013Z,6.87
2018-06-27T00:38:55.277Z,6.40
2018-06-27T00:41:23.670Z,6.57
2018-06-27T00:43:51.853Z,7.23
2018-06-27T00:46:20.098Z,6.90
2018-06-27T00:48:48.326Z,7.30
2018-06-27T00:51:16.541Z,6.77
2018-06-27T00:53:50.325Z,6.13
2018-06-27T00:56:18.516Z,7.43
2018-06-27T00:58:46.692Z,6.87
2018-06-27T01:01:14.922Z,7.80
2018-06-27T01:03:43.125Z,6.43
2018-06-27T01:06:11.318Z,7.10
2018-06-27T01:08:39.554Z,7.40
2018-06-27T01:11:07.865Z,7.60
2018-06-27T01:13:36.136Z,7.60
2018-06-27T01:16:04.595Z,6.13
2018-06-27T01:18:32.825Z,7.63
2018-06-27T01:21:01.033Z,7.27
2018-06-27T01:23:29.261Z,7.17
2018-06-27T01:25:57.486Z,8.40
2018-06-27T01:28:25.665Z,7.90
2018-06-27T01:30:53.940Z,8.07
2018-06-27T01:33:22.147Z,6.67
2018-06-27T01:35:50.381Z,8.40
2018-06-27T01:38:18.609Z,7.70
2018-06-27T01:40:46.817Z,7.30
2018-06-27T01:43:15.010Z,7.20
2018-06-27T01:45:43.244Z,8.10
2018-06-27T01:48:11.476Z,7.50
2018-06-27T01:50:39.653Z,7.73
2018-06-27T01:53:07.904Z,6.87
2018-06-27T01:55:36.116Z,6.33
2018-06-27T01:58:04.353Z,7.20
2018-06-27T02:00:32.570Z,6.60
2018-06-27T02:03:00.773Z,7.90
2018-06-27T02:05:28.952Z,8.00
2018-06-27T02:07:57.168Z,7.50
2018-06-27T02:10:25.406Z,7.40
2018-06-27T02:12:53.673Z,6.60
2018-06-27T02:15:21.977Z,6.30
2018-06-27T02:17:50.288Z,8.67
2018-06-27T02:20:18.512Z,7.87
2018-06-27T02:22:46.753Z,7.13
2018-06-27T02:25:15.022Z,6.57
2018-06-27T02:27:43.204Z,7.97
2018-06-27T02:30:11.716Z,7.53
2018-06-27T02:32:39.953Z,8.50
2018-06-27T02:35:08.236Z,6.17
2018-06-27T02:37:36.439Z,7.57
2018-06-27T02:40:04.737Z,6.80
2018-06-27T02:42:32.925Z,7.87
2018-06-27T02:45:01.162Z,7.00
2018-06-27T02:47:29.388Z,8.03
2018-06-27T02:49:57.565Z,7.47
2018-06-27T02:52:25.767Z,6.60
2018-06-27T02:54:54.001Z,6.50
2018-06-27T02:57:22.190Z,6.60
2018-06-27T02:59:50.413Z,7.60
2018-06-27T03:02:18.643Z,7.60
2018-06-27T03:04:46.825Z,7.50
2018-06-27T03:07:15.077Z,7.40
2018-06-27T03:09:43.312Z,7.13
2018-06-27T03:12:11.473Z,8.07
2018-06-27T03:14:40.579Z,7.30
2018-06-27T03:17:08.792Z,8.23
2018-06-27T03:19:36.980Z,7.23
2018-06-27T03:22:05.341Z,7.00
2018-06-27T03:24:33.549Z,7.70
2018-06-27T03:27:01.708Z,7.07
2018-06-27T03:29:29.954Z,8.57
2018-06-27T03:31:58.156Z,8.23
2018-06-27T03:34:26.330Z,9.03
2018-06-27T03:36:54.537Z,8.10
2018-06-27T03:39:22.753Z,7.10
2018-06-27T03:41:50.941Z,8.00
2018-06-27T03:44:19.169Z,6.80
2018-06-27T03:46:47.411Z,7.53
2018-06-27T03:49:15.597Z,8.23
2018-06-27T03:51:43.837Z,8.60
2018-06-27T03:54:12.069Z,7.70
2018-06-27T03:56:40.257Z,8.37
2018-06-27T03:59:08.555Z,8.33
2018-06-27T04:01:36.736Z,7.07
2018-06-27T04:04:05.066Z,7.57
2018-06-27T04:06:33.273Z,7.20
2018-06-27T04:09:01.490Z,7.77
2018-06-27T04:11:29.656Z,7.70
2018-06-27T04:13:57.889Z,8.17
2018-06-27T04:16:26.133Z,9.53
2018-06-27T04:18:54.295Z,8.10
2018-06-27T04:21:22.347Z,8.40
2018-06-27T04:23:50.581Z,7.73
2018-06-27T04:26:18.783Z,8.43
2018-06-27T04:28:48.077Z,9.67
2018-06-27T04:31:16.317Z,8.37
2018-06-27T04:33:44.493Z,9.07
2018-06-27T04:36:12.811Z,8.70
2018-06-27T04:38:40.913Z,7.90
2018-06-27T04:41:08.849Z,9.10
2018-06-27T04:43:37.050Z,9.43
2018-06-27T04:46:05.332Z,8.63
2018-06-27T04:48:33.514Z,9.50
2018-06-27T04:51:01.738Z,10.97
2018-06-27T04:53:29.941Z,10.40
2018-06-27T04:55:58.189Z,8.23
2018-06-27T04:58:26.413Z,8.63
2018-06-27T05:00:54.687Z,9.90
2018-06-27T05:03:22.897Z,9.53
2018-06-27T05:05:51.129Z,9.77
2018-06-27T05:08:19.361Z,9.77
2018-06-27T05:10:47.591Z,10.17
2018-06-27T05:13:16.291Z,8.97
2018-06-27T05:15:45.003Z,10.30
2018-06-27T05:18:13.645Z,9.97
2018-06-27T05:20:42.469Z,9.80
2018-06-27T05:23:11.310Z,8.80
2018-06-27T05:25:39.525Z,9.40
2018-06-27T05:28:07.727Z,11.47
2018-06-27T05:30:35.938Z,9.63
2018-06-27T05:33:04.150Z,9.73
2018-06-27T05:35:32.381Z,9.00
2018-06-27T05:38:00.704Z,10.00
2018-06-27T05:40:28.928Z,9.90
2018-06-27T05:42:57.160Z,8.60
2018-06-27T05:45:25.402Z,9.08
2018-06-27T05:47:53.585Z,8.17
2018-06-27T05:50:21.802Z,10.07
2018-06-27T05:52:50.000Z,9.63
2018-06-27T05:55:18.173Z,9.10
2018-06-27T05:57:46.382Z,9.50
2018-06-27T06:00:14.613Z,8.47
2018-06-27T06:02:42.797Z,8.23
2018-06-27T06:05:11.012Z,9.10
2018-06-27T06:07:39.254Z,7.80
2018-06-27T06:10:07.476Z,8.77
2018-06-27T06:12:35.676Z,7.80
2018-06-27T06:15:04.286Z,9.50
2018-06-27T06:17:32.505Z,8.60
2018-06-27T06:20:00.714Z,9.37
2018-06-27T06:22:28.952Z,9.40
2018-06-27T06:24:57.210Z,8.60
2018-06-27T06:27:25.390Z,8.90
2018-06-27T06:29:53.604Z,8.80
2018-06-27T06:32:21.835Z,8.60
2018-06-27T06:34:50.054Z,8.40
2018-06-27T06:37:18.294Z,8.57
2018-06-27T06:39:46.513Z,8.27
2018-06-27T06:42:14.445Z,7.67
2018-06-27T06:44:42.656Z,9.70
2018-06-27T06:47:10.903Z,8.03
2018-06-27T06:49:39.124Z,7.40
2018-06-27T06:52:07.357Z,7.60
2018-06-27T06:54:35.588Z,7.63
2018-06-27T06:57:03.794Z,6.87
2018-06-27T06:59:32.017Z,8.37
2018-06-27T07:02:00.233Z,7.90
2018-06-27T07:04:28.464Z,6.63
2018-06-27T07:06:56.691Z,8.27
2018-06-27T07:09:24.908Z,6.70
2018-06-27T07:11:53.137Z,7.50
2018-06-27T07:14:21.377Z,7.57
2018-06-27T07:16:49.629Z,8.27
2018-06-27T07:19:17.849Z,7.47
2018-06-27T07:21:46.167Z,7.30
2018-06-27T07:24:14.393Z,7.37
2018-06-27T07:26:42.646Z,7.60
2018-06-27T07:29:10.638Z,7.40
2018-06-27T07:31:38.881Z,7.17
2018-06-27T07:34:07.098Z,6.90
2018-06-27T07:36:35.338Z,7.83
2018-06-27T07:39:06.236Z,7.37
2018-06-27T07:41:34.462Z,7.20
2018-06-27T07:44:02.729Z,7.67
2018-06-27T07:46:30.925Z,6.07
2018-06-27T07:48:59.163Z,5.87
2018-06-27T07:51:27.417Z,5.77
2018-06-27T07:53:55.636Z,6.43
2018-06-27T07:56:24.499Z,6.40
2018-06-27T07:58:52.797Z,6.20
2018-06-27T08:01:21.020Z,5.70
2018-06-27T08:03:49.219Z,7.03
2018-06-27T08:06:17.425Z,6.33
2018-06-27T08:08:45.629Z,6.10
2018-06-27T08:11:13.940Z,5.27
2018-06-27T08:13:42.149Z,6.43
2018-06-27T08:16:10.337Z,6.17
2018-06-27T08:18:42.662Z,5.50
2018-06-27T08:21:11.137Z,6.93
2018-06-27T08:23:39.425Z,5.33
2018-06-27T08:26:07.833Z,6.20
2018-06-27T08:28:36.034Z,6.93
2018-06-27T08:31:04.239Z,5.97
2018-06-27T08:33:32.493Z,5.77
2018-06-27T08:36:00.773Z,5.70
2018-06-27T08:38:28.990Z,6.30
2018-06-27T08:40:57.284Z,5.13
2018-06-27T08:43:25.844Z,6.23
2018-06-27T08:45:54.068Z,5.97
2018-06-27T08:48:23.365Z,5.73
2018-06-27T08:50:51.593Z,6.23
2018-06-27T08:53:20.006Z,5.57
2018-06-27T08:55:48.269Z,5.23
2018-06-27T08:58:16.506Z,6.10
2018-06-27T09:00:44.705Z,5.23
2018-06-27T09:03:12.934Z,5.97
2018-06-27T09:05:41.148Z,3.70
2018-06-27T09:08:09.375Z,4.10
2018-06-27T09:10:37.612Z,4.73
2018-06-27T09:13:05.878Z,3.77
2018-06-27T09:15:34.089Z,4.13
2018-06-27T09:18:02.314Z,4.00
2018-06-27T09:20:30.582Z,5.17
2018-06-27T09:22:58.813Z,4.60
2018-06-27T09:25:27.058Z,4.17
2018-06-27T09:27:55.654Z,3.70
2018-06-27T09:30:23.875Z,4.30
2018-06-27T09:32:52.149Z,5.30
2018-06-27T09:35:20.551Z,4.87
2018-06-27T09:37:48.833Z,5.47
2018-06-27T09:40:17.201Z,5.63
2018-06-27T09:42:45.446Z,5.00
2018-06-27T09:45:13.933Z,3.40
2018-06-27T09:47:42.152Z,2.73
2018-06-27T09:50:10.396Z,3.27
2018-06-27T09:52:38.661Z,2.70
2018-06-27T09:55:07.041Z,3.20
2018-06-27T09:57:35.254Z,3.83
2018-06-27T10:00:03.698Z,2.73
2018-06-27T10:02:32.016Z,3.43
2018-06-27T10:05:00.287Z,3.47
2018-06-27T10:07:28.481Z,3.90
2018-06-27T10:09:56.690Z,3.80
2018-06-27T10:12:24.896Z,3.17
2018-06-27T10:14:53.126Z,2.60
2018-06-27T10:17:21.508Z,2.47
2018-06-27T10:19:49.861Z,2.00
2018-06-27T10:22:18.564Z,1.90
2018-06-27T10:24:46.865Z,2.13
2018-06-27T10:27:15.276Z,2.30
2018-06-27T10:29:43.561Z,2.07
2018-06-27T10:32:11.865Z,2.20
2018-06-27T10:34:40.148Z,2.20
2018-06-27T10:37:08.425Z,2.10
2018-06-27T10:39:36.629Z,2.13
2018-06-27T10:42:05.269Z,2.13
2018-06-27T10:44:33.497Z,2.50
2018-06-27T10:47:01.870Z,1.80
2018-06-27T10:49:30.465Z,1.77
2018-06-27T10:51:58.802Z,2.60
2018-06-27T10:54:27.181Z,2.27
2018-06-27T10:56:55.405Z,2.10
2018-06-27T10:59:23.799Z,2.23
2018-06-27T11:01:52.129Z,3.40
2018-06-27T11:04:21.099Z,1.73
2018-06-27T11:06:49.312Z,1.80
2018-06-27T11:09:17.448Z,2.10
2018-06-27T11:11:45.801Z,2.67
2018-06-27T11:14:14.258Z,2.03
2018-06-27T11:16:42.493Z,2.70
2018-06-27T11:19:10.729Z,2.00
2018-06-27T11:21:38.933Z,2.03
2018-06-27T11:24:07.173Z,1.90
2018-06-27T11:26:35.422Z,2.13
2018-06-27T11:29:03.794Z,1.80
2018-06-27T11:31:32.062Z,2.37
2018-06-27T11:34:00.305Z,2.10
2018-06-27T11:36:28.505Z,1.60
2018-06-27T11:38:56.737Z,2.20
2018-06-27T11:41:25.005Z,1.97
2018-06-27T11:43:53.449Z,1.93
2018-06-27T11:46:21.693Z,1.27
2018-06-27T11:48:50.316Z,1.80
2018-06-27T11:51:18.481Z,1.40
2018-06-27T11:53:46.674Z,1.37
2018-06-27T11:56:15.636Z,1.67
2018-06-27T11:58:43.869Z,1.40
2018-06-27T12:01:12.145Z,1.67
2018-06-27T12:03:40.388Z,1.57
2018-06-27T12:06:08.603Z,1.73
2018-06-27T12:08:36.806Z,1.57
2018-06-27T12:11:05.069Z,1.80
2018-06-27T12:13:33.364Z,1.70
2018-06-27T12:16:01.729Z,1.50
2018-06-27T12:18:30.002Z,1.40
2018-06-27T12:20:58.341Z,1.57
2018-06-27T12:23:26.686Z,2.97
2018-06-27T12:25:55.241Z,2.20
2018-06-27T12:28:23.593Z,2.07
2018-06-27T12:30:52.457Z,1.90
2018-06-27T12:33:20.817Z,2.43
2018-06-27T12:35:49.000Z,1.70
2018-06-27T12:38:17.401Z,1.93
2018-06-27T12:40:45.853Z,2.20
2018-06-27T12:43:14.085Z,2.20
2018-06-27T12:45:42.323Z,1.90
2018-06-27T12:48:10.589Z,2.10
2018-06-27T12:50:38.830Z,2.23
2018-06-27T12:53:07.101Z,2.57
2018-06-27T12:55:35.321Z,2.30
2018-06-27T12:58:03.550Z,2.13
2018-06-27T13:00:31.864Z,2.47
2018-06-27T13:03:00.065Z,2.20
2018-06-27T13:05:28.314Z,2.00
2018-06-27T13:07:56.542Z,2.40
2018-06-27T13:10:24.741Z,1.80
2018-06-27T13:12:52.973Z,2.40
2018-06-27T13:15:21.189Z,2.20
2018-06-27T13:17:49.394Z,2.50
2018-06-27T13:20:17.593Z,2.67
2018-06-27T13:22:45.782Z,2.23
2018-06-27T13:25:14.000Z,2.17
2018-06-27T13:27:42.186Z,1.93
2018-06-27T13:30:11.046Z,1.53
2018-06-27T13:32:39.275Z,1.60
2018-06-27T13:35:07.524Z,2.20
2018-06-27T13:37:35.771Z,1.50
2018-06-27T13:40:04.177Z,1.33
2018-06-27T13:42:32.415Z,1.70
2018-06-27T13:45:00.834Z,1.83
2018-06-27T13:47:29.052Z,2.00
2018-06-27T13:49:57.278Z,2.00
2018-06-27T13:52:25.478Z,1.50
2018-06-27T13:54:54.549Z,1.90
2018-06-27T13:57:23.501Z,1.90
2018-06-27T13:59:51.802Z,1.57
2018-06-27T14:02:20.435Z,1.27
2018-06-27T14:04:48.885Z,1.50
2018-06-27T14:07:17.128Z,1.50
2018-06-27T14:09:45.378Z,1.00
2018-06-27T14:12:13.561Z,1.53
2018-06-27T14:14:41.779Z,1.30
2018-06-27T14:17:10.006Z,1.70
2018-06-27T14:19:38.213Z,1.70
2018-06-27T14:22:07.238Z,1.20
2018-06-27T14:24:35.949Z,1.90
2018-06-27T14:27:04.185Z,1.80
2018-06-27T14:29:32.441Z,1.83
2018-06-27T14:32:00.680Z,1.30
2018-06-27T14:34:28.892Z,1.80
2018-06-27T14:36:57.120Z,2.10
2018-06-27T14:39:25.400Z,1.37
2018-06-27T14:41:53.615Z,1.23
2018-06-27T14:44:21.862Z,2.00
2018-06-27T14:46:53.190Z,1.50
2018-06-27T14:49:21.444Z,1.60
2018-06-27T14:51:49.673Z,1.63
2018-06-27T14:54:17.897Z,1.13
2018-06-27T14:56:46.151Z,1.97
2018-06-27T14:59:15.324Z,1.27
2018-06-27T15:01:43.520Z,1.70
2018-06-27T15:04:11.742Z,1.70
2018-06-27T15:06:39.965Z,1.57
2018-06-27T15:09:09.178Z,1.97
2018-06-27T15:11:37.414Z,1.50
2018-06-27T15:14:05.689Z,1.70
2018-06-27T15:16:34.260Z,1.87
2018-06-27T15:19:02.474Z,1.60
2018-06-27T15:21:30.718Z,1.73
2018-06-27T15:23:58.954Z,2.37
2018-06-27T15:26:27.207Z,2.07
2018-06-27T15:28:55.498Z,2.10
2018-06-27T15:31:24.065Z,2.23
2018-06-27T15:33:52.319Z,2.50
2018-06-27T15:36:20.609Z,2.23
2018-06-27T15:38:48.821Z,3.40
2018-06-27T15:41:17.101Z,5.20
2018-06-27T15:43:45.333Z,2.30
2018-06-27T15:46:13.525Z,2.33
2018-06-27T15:48:41.797Z,1.97
2018-06-27T15:51:10.125Z,1.80
2018-06-27T15:53:38.356Z,1.73
2018-06-27T15:56:06.625Z,1.90
2018-06-27T15:58:34.853Z,1.70
2018-06-27T16:01:03.080Z,2.87
2018-06-27T16:03:31.306Z,2.30
2018-06-27T16:05:59.512Z,39.73
2018-06-27T16:08:27.710Z,9.00
2018-06-27T16:10:56.123Z,21.57
2018-06-27T16:13:24.364Z,4.00
2018-06-27T16:15:52.557Z,1.90
2018-06-27T16:18:20.841Z,2.10
2018-06-27T16:20:49.188Z,1.67
2018-06-27T16:23:17.461Z,1.80
2018-06-27T16:25:45.691Z,1.57
2018-06-27T16:28:13.941Z,1.87
2018-06-27T16:30:42.173Z,1.80
2018-06-27T16:33:10.421Z,1.60
2018-06-27T16:35:38.681Z,1.63
2018-06-27T16:38:07.070Z,1.47
2018-06-27T16:40:35.332Z,1.67
2018-06-27T16:43:03.654Z,1.07
2018-06-27T16:45:31.911Z,1.30
2018-06-27T16:48:00.117Z,1.10
2018-06-27T16:50:28.394Z,0.90
2018-06-27T16:52:56.577Z,1.10
2018-06-27T16:55:24.942Z,1.40
2018-06-27T16:57:53.230Z,1.20
2018-06-27T17:00:21.438Z,0.90
2018-06-27T17:02:49.651Z,1.20
2018-06-27T17:05:17.853Z,1.60
2018-06-27T17:07:46.033Z,1.50
2018-06-27T17:10:14.293Z,1.00
2018-06-27T17:12:42.645Z,1.37
2018-06-27T17:15:10.885Z,1.10
2018-06-27T17:17:39.912Z,1.27
2018-06-27T17:20:08.189Z,1.00
2018-06-27T17:22:36.393Z,1.30
2018-06-27T17:25:04.724Z,1.00
2018-06-27T17:27:32.966Z,1.00
2018-06-27T17:30:01.211Z,1.07
2018-06-27T17:32:29.458Z,1.63
2018-06-27T17:34:57.706Z,1.67
2018-06-27T17:37:25.904Z,2.00
2018-06-27T17:39:54.174Z,2.20
2018-06-27T17:42:22.469Z,1.83
2018-06-27T17:44:50.794Z,1.90
2018-06-27T17:47:18.977Z,1.67
2018-06-27T17:49:47.290Z,1.60
2018-06-27T17:52:15.502Z,1.60
2018-06-27T17:54:43.721Z,2.17
2018-06-27T17:57:12.089Z,1.80
2018-06-27T17:59:40.414Z,1.80
2018-06-27T18:02:08.697Z,1.90
2018-06-27T18:04:37.014Z,1.87
2018-06-27T18:07:05.398Z,1.50
2018-06-27T18:09:33.635Z,1.80
2018-06-27T18:12:01.935Z,1.80
2018-06-27T18:14:30.222Z,1.80
2018-06-27T18:16:58.490Z,2.00
2018-06-27T18:19:26.721Z,1.80
2018-06-27T18:21:54.923Z,1.60
2018-06-27T18:24:23.170Z,1.83
2018-06-27T18:26:51.414Z,1.40
2018-06-27T18:29:19.669Z,1.43
2018-06-27T18:31:47.939Z,1.40
2018-06-27T18:34:16.188Z,2.10
2018-06-27T18:36:44.554Z,1.47
2018-06-27T18:39:12.821Z,1.90
2018-06-27T18:41:41.093Z,1.97
2018-06-27T18:44:09.557Z,2.00
2018-06-27T18:46:38.226Z,1.90
2018-06-27T18:49:06.748Z,2.10
2018-06-27T18:51:35.164Z,1.60
2018-06-27T18:54:03.643Z,1.93
2018-06-27T18:56:31.920Z,1.97
2018-06-27T18:59:00.205Z,2.57
2018-06-27T19:01:28.985Z,1.90
2018-06-27T19:03:57.321Z,2.30
2018-06-27T19:06:25.533Z,2.10
2018-06-27T19:08:53.776Z,2.03
2018-06-27T19:11:22.011Z,2.03
2018-06-27T19:13:50.224Z,2.00
2018-06-27T19:16:18.437Z,2.40
2018-06-27T19:18:47.088Z,1.90
2018-06-27T19:21:15.377Z,1.63
2018-06-27T19:23:43.609Z,1.53
2018-06-27T19:26:11.842Z,1.83
2018-06-27T19:28:40.302Z,2.20
2018-06-27T19:31:08.546Z,2.03
2018-06-27T19:33:36.787Z,2.13
2018-06-27T19:36:05.074Z,2.30
2018-06-27T19:38:33.921Z,2.23
2018-06-27T19:41:02.323Z,2.20
2018-06-27T19:43:30.508Z,2.60
2018-06-27T19:45:58.785Z,2.60
2018-06-27T19:48:27.081Z,2.90
2018-06-27T19:50:55.391Z,2.03
2018-06-27T19:53:23.610Z,2.40
2018-06-27T19:55:52.202Z,2.60
2018-06-27T19:58:20.487Z,1.83
2018-06-27T20:00:48.746Z,2.83
2018-06-27T20:03:17.028Z,2.57
2018-06-27T20:05:45.236Z,2.67
2018-06-27T20:08:13.549Z,2.93
2018-06-27T20:10:41.845Z,4.70
2018-06-27T20:13:10.178Z,4.70
2018-06-27T20:15:38.445Z,2.80
2018-06-27T20:18:06.791Z,2.40
2018-06-27T20:20:35.047Z,2.17
2018-06-27T20:23:03.379Z,2.40
2018-06-27T20:25:31.690Z,2.03
2018-06-27T20:27:59.926Z,2.60
2018-06-27T20:30:28.317Z,2.07
2018-06-27T20:32:56.608Z,3.70
2018-06-27T20:35:24.866Z,2.90
2018-06-27T20:37:53.097Z,2.40
2018-06-27T20:40:21.345Z,3.10
2018-06-27T20:42:49.507Z,3.13
2018-06-27T20:45:18.246Z,3.80
2018-06-27T20:47:46.963Z,3.57
2018-06-27T20:50:15.957Z,2.97
2018-06-27T20:52:44.661Z,3.30
2018-06-27T20:55:13.418Z,3.00
2018-06-27T20:57:42.107Z,3.60
2018-06-27T21:00:10.873Z,3.87
2018-06-27T21:02:39.545Z,2.90
2018-06-27T21:05:08.210Z,2.40
2018-06-27T21:07:36.961Z,3.20
2018-06-27T21:10:05.547Z,2.87
2018-06-27T21:12:33.758Z,3.33
2018-06-27T21:15:02.071Z,2.33
2018-06-27T21:17:30.277Z,3.23
2018-06-27T21:19:58.529Z,2.73
2018-06-27T21:22:26.749Z,2.10
2018-06-27T21:24:54.988Z,2.50
2018-06-27T21:27:23.165Z,2.63
2018-06-27T21:29:51.447Z,2.80
2018-06-27T21:32:19.765Z,2.87
2018-06-27T21:34:47.989Z,2.50
2018-06-27T21:37:16.270Z,3.27
2018-06-27T21:39:44.549Z,2.80
2018-06-27T21:42:12.754Z,4.00
2018-06-27T21:44:40.981Z,3.60
2018-06-27T21:47:09.222Z,3.90
2018-06-27T21:49:37.402Z,3.30
2018-06-27T21:52:05.722Z,3.40
2018-06-27T21:54:34.135Z,2.90
2018-06-27T21:57:02.413Z,3.53
2018-06-27T21:59:30.656Z,3.40
2018-06-27T22:01:58.957Z,3.23
2018-06-27T22:04:27.223Z,3.57
2018-06-27T22:06:55.474Z,3.33
2018-06-27T22:09:23.705Z,3.73
2018-06-27T22:11:51.897Z,3.23
2018-06-27T22:14:20.125Z,2.80
2018-06-27T22:16:48.362Z,2.80
2018-06-27T22:19:16.613Z,2.60
2018-06-27T22:21:44.947Z,3.13
2018-06-27T22:24:13.117Z,2.97
2018-06-27T22:26:41.318Z,2.90
2018-06-27T22:29:09.537Z,2.60
2018-06-27T22:31:37.769Z,2.63
2018-06-27T22:34:06.001Z,3.00
2018-06-27T22:36:34.226Z,3.13
2018-06-27T22:39:02.557Z,3.60
2018-06-27T22:41:30.782Z,3.20
2018-06-27T22:43:59.078Z,2.77
2018-06-27T22:46:27.300Z,2.80
2018-06-27T22:48:55.575Z,2.63
2018-06-27T22:51:23.797Z,2.97
2018-06-27T22:53:52.053Z,3.73
2018-06-27T22:56:20.251Z,2.83
2018-06-27T22:58:48.511Z,2.63
2018-06-27T23:01:16.710Z,2.77
2018-06-27T23:03:44.935Z,3.00
2018-06-27T23:06:13.165Z,3.30
2018-06-27T23:08:41.449Z,3.73
2018-06-27T23:11:09.680Z,3.07
2018-06-27T23:13:37.937Z,3.30
2018-06-27T23:16:06.397Z,3.37
2018-06-27T23:18:34.857Z,2.80
2018-06-27T23:21:03.191Z,3.27
2018-06-27T23:23:31.401Z,3.20
2018-06-27T23:25:59.727Z,3.43
2018-06-27T23:28:27.945Z,3.00
2018-06-27T23:30:56.227Z,3.33
2018-06-27T23:33:24.493Z,3.33
2018-06-27T23:35:52.757Z,2.90
2018-06-27T23:38:21.053Z,3.83
2018-06-27T23:40:49.261Z,3.07
2018-06-27T23:43:17.581Z,3.30
2018-06-27T23:45:45.828Z,3.40
2018-06-27T23:48:14.002Z,3.13
2018-06-27T23:50:42.264Z,3.57
2018-06-27T23:53:10.490Z,3.83
2018-06-27T23:55:38.878Z,3.10
2018-06-27T23:58:07.278Z,3.27
